sensor_id;sensor_type;location;lat;lon;timestamp;P1;durP1;ratioP1;P2;durP2;ratioP2
48805;SDS011;34625;47.176;27.548;2022-12-07T00:01:08;3.88;;;1.88;;
48805;SDS011;34625;47.176;27.548;2022-12-07T00:03:39;2.70;;;2.10;;
48805;SDS011;34625;47.176;27.548;2022-12-07T00:06:07;2.13;;;1.92;;
48805;SDS011;34625;47.176;27.548;2022-12-07T00:08:35;3.00;;;2.08;;
48805;SDS011;34625;47.176;27.548;2022-12-07T00:11:11;2.97;;;2.28;;
48805;SDS011;34625;47.176;27.548;2022-12-07T00:13:40;2.80;;;2.05;;
48805;SDS011;34625;47.176;27.548;2022-12-07T00:16:07;2.22;;;2.03;;
48805;SDS011;34625;47.176;27.548;2022-12-07T00:18:35;3.65;;;2.30;;
48805;SDS011;34625;47.176;27.548;2022-12-07T00:21:05;4.07;;;2.05;;
48805;SDS011;34625;47.176;27.548;2022-12-07T00:23:33;3.30;;;2.35;;
48805;SDS011;34625;47.176;27.548;2022-12-07T00:26:03;2.10;;;1.90;;
48805;SDS011;34625;47.176;27.548;2022-12-07T00:28:33;2.25;;;1.85;;
48805;SDS011;34625;47.176;27.548;2022-12-07T00:31:09;3.22;;;2.55;;
48805;SDS011;34625;47.176;27.548;2022-12-07T00:33:36;3.45;;;2.95;;
48805;SDS011;34625;47.176;27.548;2022-12-07T00:36:04;3.22;;;2.95;;
48805;SDS011;34625;47.176;27.548;2022-12-07T00:38:34;5.72;;;2.95;;
48805;SDS011;34625;47.176;27.548;2022-12-07T00:41:02;5.53;;;3.15;;
48805;SDS011;34625;47.176;27.548;2022-12-07T00:43:31;4.35;;;2.90;;
48805;SDS011;34625;47.176;27.548;2022-12-07T00:45:57;4.38;;;3.10;;
48805;SDS011;34625;47.176;27.548;2022-12-07T00:48:23;7.57;;;3.97;;
48805;SDS011;34625;47.176;27.548;2022-12-07T00:50:50;5.60;;;3.15;;
48805;SDS011;34625;47.176;27.548;2022-12-07T00:53:16;4.63;;;3.75;;
48805;SDS011;34625;47.176;27.548;2022-12-07T00:55:43;3.60;;;2.85;;
48805;SDS011;34625;47.176;27.548;2022-12-07T00:58:09;4.63;;;3.10;;
48805;SDS011;34625;47.176;27.548;2022-12-07T01:00:36;6.70;;;3.97;;
48805;SDS011;34625;47.176;27.548;2022-12-07T01:03:04;6.60;;;2.95;;
48805;SDS011;34625;47.176;27.548;2022-12-07T01:05:31;5.00;;;2.90;;
48805;SDS011;34625;47.176;27.548;2022-12-07T01:07:57;4.95;;;2.80;;
48805;SDS011;34625;47.176;27.548;2022-12-07T01:10:23;4.78;;;3.13;;
48805;SDS011;34625;47.176;27.548;2022-12-07T01:12:49;3.28;;;2.42;;
48805;SDS011;34625;47.176;27.548;2022-12-07T01:15:15;5.72;;;3.45;;
48805;SDS011;34625;47.176;27.548;2022-12-07T01:17:41;5.70;;;4.00;;
48805;SDS011;34625;47.176;27.548;2022-12-07T01:20:07;5.90;;;2.83;;
48805;SDS011;34625;47.176;27.548;2022-12-07T01:22:40;4.25;;;2.88;;
48805;SDS011;34625;47.176;27.548;2022-12-07T01:25:07;3.58;;;2.90;;
48805;SDS011;34625;47.176;27.548;2022-12-07T01:27:34;3.25;;;2.40;;
48805;SDS011;34625;47.176;27.548;2022-12-07T01:30:03;4.60;;;2.67;;
48805;SDS011;34625;47.176;27.548;2022-12-07T01:32:30;4.82;;;2.55;;
48805;SDS011;34625;47.176;27.548;2022-12-07T01:34:56;5.07;;;3.40;;
48805;SDS011;34625;47.176;27.548;2022-12-07T01:37:22;6.50;;;3.03;;
48805;SDS011;34625;47.176;27.548;2022-12-07T01:39:48;4.05;;;2.60;;
48805;SDS011;34625;47.176;27.548;2022-12-07T01:42:15;3.92;;;2.97;;
48805;SDS011;34625;47.176;27.548;2022-12-07T01:47:56;3.35;;;2.95;;
48805;SDS011;34625;47.176;27.548;2022-12-07T01:50:24;3.50;;;2.78;;
48805;SDS011;34625;47.176;27.548;2022-12-07T01:52:53;5.25;;;3.30;;
48805;SDS011;34625;47.176;27.548;2022-12-07T01:55:22;5.65;;;3.25;;
48805;SDS011;34625;47.176;27.548;2022-12-07T01:57:49;4.85;;;3.03;;
48805;SDS011;34625;47.176;27.548;2022-12-07T02:00:18;4.32;;;2.83;;
48805;SDS011;34625;47.176;27.548;2022-12-07T02:02:55;3.35;;;2.47;;
48805;SDS011;34625;47.176;27.548;2022-12-07T02:05:26;2.67;;;2.40;;
48805;SDS011;34625;47.176;27.548;2022-12-07T02:07:54;7.00;;;2.60;;
48805;SDS011;34625;47.176;27.548;2022-12-07T02:10:23;3.47;;;2.40;;
48805;SDS011;34625;47.176;27.548;2022-12-07T02:12:55;3.58;;;2.50;;
48805;SDS011;34625;47.176;27.548;2022-12-07T02:23:45;2.78;;;2.58;;
48805;SDS011;34625;47.176;27.548;2022-12-07T02:26:23;4.57;;;2.35;;
48805;SDS011;34625;47.176;27.548;2022-12-07T02:31:46;3.00;;;2.50;;
48805;SDS011;34625;47.176;27.548;2022-12-07T02:34:22;3.38;;;3.05;;
48805;SDS011;34625;47.176;27.548;2022-12-07T02:37:07;5.10;;;2.75;;
48805;SDS011;34625;47.176;27.548;2022-12-07T02:39:57;3.95;;;2.53;;
48805;SDS011;34625;47.176;27.548;2022-12-07T02:42:43;3.47;;;2.60;;
48805;SDS011;34625;47.176;27.548;2022-12-07T02:45:17;4.55;;;2.92;;
48805;SDS011;34625;47.176;27.548;2022-12-07T02:47:47;2.95;;;2.50;;
48805;SDS011;34625;47.176;27.548;2022-12-07T02:50:17;4.32;;;2.65;;
48805;SDS011;34625;47.176;27.548;2022-12-07T02:52:47;4.97;;;3.00;;
48805;SDS011;34625;47.176;27.548;2022-12-07T02:55:13;3.33;;;2.38;;
48805;SDS011;34625;47.176;27.548;2022-12-07T03:00:24;3.15;;;2.60;;
48805;SDS011;34625;47.176;27.548;2022-12-07T03:07:50;4.80;;;3.05;;
48805;SDS011;34625;47.176;27.548;2022-12-07T03:16:15;3.40;;;2.70;;
48805;SDS011;34625;47.176;27.548;2022-12-07T03:19:03;2.97;;;2.55;;
48805;SDS011;34625;47.176;27.548;2022-12-07T03:21:51;5.00;;;3.13;;
48805;SDS011;34625;47.176;27.548;2022-12-07T03:24:26;3.97;;;2.80;;
48805;SDS011;34625;47.176;27.548;2022-12-07T03:27:01;4.13;;;2.85;;
48805;SDS011;34625;47.176;27.548;2022-12-07T03:29:34;4.03;;;2.80;;
48805;SDS011;34625;47.176;27.548;2022-12-07T03:32:08;3.75;;;3.13;;
48805;SDS011;34625;47.176;27.548;2022-12-07T03:34:59;3.17;;;2.88;;
48805;SDS011;34625;47.176;27.548;2022-12-07T03:40:48;3.90;;;3.50;;
48805;SDS011;34625;47.176;27.548;2022-12-07T03:43:20;3.60;;;2.88;;
48805;SDS011;34625;47.176;27.548;2022-12-07T03:51:28;3.92;;;2.88;;
48805;SDS011;34625;47.176;27.548;2022-12-07T03:54:13;3.03;;;2.40;;
48805;SDS011;34625;47.176;27.548;2022-12-07T03:56:46;3.90;;;3.22;;
48805;SDS011;34625;47.176;27.548;2022-12-07T03:59:14;4.15;;;2.95;;
48805;SDS011;34625;47.176;27.548;2022-12-07T04:01:43;3.28;;;2.92;;
48805;SDS011;34625;47.176;27.548;2022-12-07T04:04:10;4.28;;;3.20;;
48805;SDS011;34625;47.176;27.548;2022-12-07T04:06:36;8.70;;;3.40;;
48805;SDS011;34625;47.176;27.548;2022-12-07T04:09:02;4.50;;;3.53;;
48805;SDS011;34625;47.176;27.548;2022-12-07T04:11:28;8.48;;;6.32;;
48805;SDS011;34625;47.176;27.548;2022-12-07T04:13:54;4.95;;;4.25;;
48805;SDS011;34625;47.176;27.548;2022-12-07T04:16:39;5.43;;;3.83;;
48805;SDS011;34625;47.176;27.548;2022-12-07T04:19:05;6.45;;;3.63;;
48805;SDS011;34625;47.176;27.548;2022-12-07T04:21:31;4.32;;;3.42;;
48805;SDS011;34625;47.176;27.548;2022-12-07T04:23:57;3.45;;;3.13;;
48805;SDS011;34625;47.176;27.548;2022-12-07T04:26:23;4.20;;;3.80;;
48805;SDS011;34625;47.176;27.548;2022-12-07T04:28:49;6.72;;;3.80;;
48805;SDS011;34625;47.176;27.548;2022-12-07T04:31:15;5.90;;;3.83;;
48805;SDS011;34625;47.176;27.548;2022-12-07T04:33:41;5.03;;;3.95;;
48805;SDS011;34625;47.176;27.548;2022-12-07T04:36:07;9.23;;;4.85;;
48805;SDS011;34625;47.176;27.548;2022-12-07T04:38:33;5.13;;;3.13;;
48805;SDS011;34625;47.176;27.548;2022-12-07T04:41:03;5.63;;;3.65;;
48805;SDS011;34625;47.176;27.548;2022-12-07T04:43:31;6.13;;;3.53;;
48805;SDS011;34625;47.176;27.548;2022-12-07T04:45:57;4.60;;;3.42;;
48805;SDS011;34625;47.176;27.548;2022-12-07T04:48:23;5.05;;;3.35;;
48805;SDS011;34625;47.176;27.548;2022-12-07T04:50:49;4.82;;;3.67;;
48805;SDS011;34625;47.176;27.548;2022-12-07T04:53:15;5.63;;;3.60;;
48805;SDS011;34625;47.176;27.548;2022-12-07T04:55:41;5.45;;;3.92;;
48805;SDS011;34625;47.176;27.548;2022-12-07T04:58:07;4.60;;;3.28;;
48805;SDS011;34625;47.176;27.548;2022-12-07T05:00:33;6.72;;;4.15;;
48805;SDS011;34625;47.176;27.548;2022-12-07T05:02:59;8.98;;;4.50;;
48805;SDS011;34625;47.176;27.548;2022-12-07T05:05:25;6.18;;;4.55;;
48805;SDS011;34625;47.176;27.548;2022-12-07T05:07:51;6.72;;;4.15;;
48805;SDS011;34625;47.176;27.548;2022-12-07T05:10:17;7.90;;;4.32;;
48805;SDS011;34625;47.176;27.548;2022-12-07T05:12:43;5.53;;;4.45;;
48805;SDS011;34625;47.176;27.548;2022-12-07T05:15:09;6.57;;;4.18;;
48805;SDS011;34625;47.176;27.548;2022-12-07T05:17:35;4.75;;;3.50;;
48805;SDS011;34625;47.176;27.548;2022-12-07T05:20:01;5.13;;;3.63;;
48805;SDS011;34625;47.176;27.548;2022-12-07T05:22:27;5.20;;;3.78;;
48805;SDS011;34625;47.176;27.548;2022-12-07T05:24:54;10.90;;;3.97;;
48805;SDS011;34625;47.176;27.548;2022-12-07T05:27:20;7.05;;;3.42;;
48805;SDS011;34625;47.176;27.548;2022-12-07T05:29:46;4.55;;;3.67;;
48805;SDS011;34625;47.176;27.548;2022-12-07T05:32:12;5.97;;;3.55;;
48805;SDS011;34625;47.176;27.548;2022-12-07T05:34:38;6.90;;;3.60;;
48805;SDS011;34625;47.176;27.548;2022-12-07T05:37:04;5.13;;;3.95;;
48805;SDS011;34625;47.176;27.548;2022-12-07T05:39:30;9.88;;;5.63;;
48805;SDS011;34625;47.176;27.548;2022-12-07T05:41:56;8.73;;;5.82;;
48805;SDS011;34625;47.176;27.548;2022-12-07T05:44:41;8.77;;;5.50;;
48805;SDS011;34625;47.176;27.548;2022-12-07T05:47:09;7.22;;;5.70;;
48805;SDS011;34625;47.176;27.548;2022-12-07T05:49:35;6.70;;;4.90;;
48805;SDS011;34625;47.176;27.548;2022-12-07T05:52:02;6.80;;;4.53;;
48805;SDS011;34625;47.176;27.548;2022-12-07T05:54:28;6.80;;;4.80;;
48805;SDS011;34625;47.176;27.548;2022-12-07T05:56:54;8.20;;;4.97;;
48805;SDS011;34625;47.176;27.548;2022-12-07T05:59:21;7.90;;;4.93;;
48805;SDS011;34625;47.176;27.548;2022-12-07T06:04:21;6.40;;;4.35;;
48805;SDS011;34625;47.176;27.548;2022-12-07T06:06:48;4.82;;;3.72;;
48805;SDS011;34625;47.176;27.548;2022-12-07T06:09:14;6.20;;;4.03;;
48805;SDS011;34625;47.176;27.548;2022-12-07T06:11:41;8.55;;;5.18;;
48805;SDS011;34625;47.176;27.548;2022-12-07T06:14:26;9.02;;;5.65;;
48805;SDS011;34625;47.176;27.548;2022-12-07T06:16:52;6.45;;;5.22;;
48805;SDS011;34625;47.176;27.548;2022-12-07T06:19:18;7.82;;;6.47;;
48805;SDS011;34625;47.176;27.548;2022-12-07T06:21:44;7.63;;;5.13;;
48805;SDS011;34625;47.176;27.548;2022-12-07T06:24:11;6.43;;;4.82;;
48805;SDS011;34625;47.176;27.548;2022-12-07T06:26:37;5.63;;;4.85;;
48805;SDS011;34625;47.176;27.548;2022-12-07T06:29:04;7.95;;;5.63;;
48805;SDS011;34625;47.176;27.548;2022-12-07T06:31:30;10.70;;;7.00;;
48805;SDS011;34625;47.176;27.548;2022-12-07T06:33:59;15.52;;;8.35;;
48805;SDS011;34625;47.176;27.548;2022-12-07T06:36:26;8.32;;;6.38;;
48805;SDS011;34625;47.176;27.548;2022-12-07T06:38:53;11.05;;;6.80;;
48805;SDS011;34625;47.176;27.548;2022-12-07T06:41:19;11.05;;;6.53;;
48805;SDS011;34625;47.176;27.548;2022-12-07T06:43:46;8.20;;;6.15;;
48805;SDS011;34625;47.176;27.548;2022-12-07T06:46:12;10.07;;;6.43;;
48805;SDS011;34625;47.176;27.548;2022-12-07T06:48:39;9.48;;;5.43;;
48805;SDS011;34625;47.176;27.548;2022-12-07T06:51:06;10.73;;;5.72;;
48805;SDS011;34625;47.176;27.548;2022-12-07T06:53:32;12.57;;;6.05;;
48805;SDS011;34625;47.176;27.548;2022-12-07T06:55:58;7.50;;;5.95;;
48805;SDS011;34625;47.176;27.548;2022-12-07T06:58:24;8.13;;;5.95;;
48805;SDS011;34625;47.176;27.548;2022-12-07T07:00:50;10.65;;;6.70;;
48805;SDS011;34625;47.176;27.548;2022-12-07T07:03:16;8.68;;;6.80;;
48805;SDS011;34625;47.176;27.548;2022-12-07T07:05:43;5.97;;;4.57;;
48805;SDS011;34625;47.176;27.548;2022-12-07T07:08:10;9.73;;;4.55;;
48805;SDS011;34625;47.176;27.548;2022-12-07T07:10:36;7.45;;;5.20;;
48805;SDS011;34625;47.176;27.548;2022-12-07T07:13:03;5.28;;;3.42;;
48805;SDS011;34625;47.176;27.548;2022-12-07T07:15:29;7.03;;;5.07;;
48805;SDS011;34625;47.176;27.548;2022-12-07T07:17:55;5.93;;;3.95;;
48805;SDS011;34625;47.176;27.548;2022-12-07T07:20:21;12.13;;;5.20;;
48805;SDS011;34625;47.176;27.548;2022-12-07T07:22:48;8.70;;;4.65;;
48805;SDS011;34625;47.176;27.548;2022-12-07T07:25:15;7.38;;;4.88;;
48805;SDS011;34625;47.176;27.548;2022-12-07T07:27:41;7.75;;;5.47;;
48805;SDS011;34625;47.176;27.548;2022-12-07T07:30:07;4.68;;;3.20;;
48805;SDS011;34625;47.176;27.548;2022-12-07T07:32:34;9.13;;;6.65;;
48805;SDS011;34625;47.176;27.548;2022-12-07T07:35:00;10.90;;;7.30;;
48805;SDS011;34625;47.176;27.548;2022-12-07T07:37:26;9.55;;;5.47;;
48805;SDS011;34625;47.176;27.548;2022-12-07T07:39:52;14.18;;;9.07;;
48805;SDS011;34625;47.176;27.548;2022-12-07T07:42:18;15.43;;;9.32;;
48805;SDS011;34625;47.176;27.548;2022-12-07T07:44:45;19.40;;;11.35;;
48805;SDS011;34625;47.176;27.548;2022-12-07T07:47:11;12.93;;;9.95;;
48805;SDS011;34625;47.176;27.548;2022-12-07T07:49:37;15.85;;;8.95;;
48805;SDS011;34625;47.176;27.548;2022-12-07T07:52:04;10.93;;;7.93;;
48805;SDS011;34625;47.176;27.548;2022-12-07T07:54:30;8.75;;;7.20;;
48805;SDS011;34625;47.176;27.548;2022-12-07T07:56:56;7.68;;;6.22;;
48805;SDS011;34625;47.176;27.548;2022-12-07T07:59:23;9.27;;;7.63;;
48805;SDS011;34625;47.176;27.548;2022-12-07T08:01:50;14.80;;;7.90;;
48805;SDS011;34625;47.176;27.548;2022-12-07T08:04:16;10.43;;;7.38;;
48805;SDS011;34625;47.176;27.548;2022-12-07T08:06:42;10.88;;;7.70;;
48805;SDS011;34625;47.176;27.548;2022-12-07T08:09:08;13.38;;;8.30;;
48805;SDS011;34625;47.176;27.548;2022-12-07T08:11:34;16.02;;;8.20;;
48805;SDS011;34625;47.176;27.548;2022-12-07T08:14:01;13.95;;;7.90;;
48805;SDS011;34625;47.176;27.548;2022-12-07T08:16:28;11.00;;;7.30;;
48805;SDS011;34625;47.176;27.548;2022-12-07T08:18:54;11.70;;;7.15;;
48805;SDS011;34625;47.176;27.548;2022-12-07T08:21:20;9.60;;;7.00;;
48805;SDS011;34625;47.176;27.548;2022-12-07T08:23:46;13.93;;;9.35;;
48805;SDS011;34625;47.176;27.548;2022-12-07T08:26:13;15.38;;;8.63;;
48805;SDS011;34625;47.176;27.548;2022-12-07T08:28:40;15.45;;;8.57;;
48805;SDS011;34625;47.176;27.548;2022-12-07T08:31:11;11.02;;;7.63;;
48805;SDS011;34625;47.176;27.548;2022-12-07T08:33:40;12.98;;;7.80;;
48805;SDS011;34625;47.176;27.548;2022-12-07T08:36:10;9.20;;;6.72;;
48805;SDS011;34625;47.176;27.548;2022-12-07T08:38:37;9.52;;;6.70;;
48805;SDS011;34625;47.176;27.548;2022-12-07T08:41:05;10.85;;;7.50;;
48805;SDS011;34625;47.176;27.548;2022-12-07T08:43:32;8.30;;;6.63;;
48805;SDS011;34625;47.176;27.548;2022-12-07T08:48:30;10.85;;;7.70;;
48805;SDS011;34625;47.176;27.548;2022-12-07T08:50:57;10.80;;;7.22;;
48805;SDS011;34625;47.176;27.548;2022-12-07T08:53:23;10.15;;;6.35;;
48805;SDS011;34625;47.176;27.548;2022-12-07T08:55:50;7.57;;;4.97;;
48805;SDS011;34625;47.176;27.548;2022-12-07T08:58:16;9.35;;;6.10;;
48805;SDS011;34625;47.176;27.548;2022-12-07T09:00:42;11.43;;;5.80;;
48805;SDS011;34625;47.176;27.548;2022-12-07T09:03:08;10.75;;;6.28;;
48805;SDS011;34625;47.176;27.548;2022-12-07T09:05:34;11.50;;;7.10;;
48805;SDS011;34625;47.176;27.548;2022-12-07T09:08:00;8.65;;;5.75;;
48805;SDS011;34625;47.176;27.548;2022-12-07T09:10:27;7.25;;;5.40;;
48805;SDS011;34625;47.176;27.548;2022-12-07T09:12:54;9.15;;;6.28;;
48805;SDS011;34625;47.176;27.548;2022-12-07T09:15:20;10.32;;;6.00;;
48805;SDS011;34625;47.176;27.548;2022-12-07T09:17:46;8.60;;;6.03;;
48805;SDS011;34625;47.176;27.548;2022-12-07T09:20:12;8.50;;;5.85;;
48805;SDS011;34625;47.176;27.548;2022-12-07T09:22:38;6.10;;;4.78;;
48805;SDS011;34625;47.176;27.548;2022-12-07T09:25:04;5.40;;;4.15;;
48805;SDS011;34625;47.176;27.548;2022-12-07T09:27:30;14.10;;;4.90;;
48805;SDS011;34625;47.176;27.548;2022-12-07T09:29:57;7.03;;;4.40;;
48805;SDS011;34625;47.176;27.548;2022-12-07T09:32:22;6.82;;;4.57;;
48805;SDS011;34625;47.176;27.548;2022-12-07T09:34:49;10.60;;;5.50;;
48805;SDS011;34625;47.176;27.548;2022-12-07T09:37:15;7.00;;;5.03;;
48805;SDS011;34625;47.176;27.548;2022-12-07T09:39:41;6.20;;;4.70;;
48805;SDS011;34625;47.176;27.548;2022-12-07T09:42:07;7.15;;;5.40;;
48805;SDS011;34625;47.176;27.548;2022-12-07T09:44:36;7.95;;;5.30;;
48805;SDS011;34625;47.176;27.548;2022-12-07T09:47:05;9.32;;;6.00;;
48805;SDS011;34625;47.176;27.548;2022-12-07T09:49:31;6.03;;;5.07;;
48805;SDS011;34625;47.176;27.548;2022-12-07T09:52:01;6.43;;;4.85;;
48805;SDS011;34625;47.176;27.548;2022-12-07T09:54:43;6.53;;;5.15;;
48805;SDS011;34625;47.176;27.548;2022-12-07T09:57:13;6.13;;;5.05;;
48805;SDS011;34625;47.176;27.548;2022-12-07T09:59:39;8.70;;;5.50;;
48805;SDS011;34625;47.176;27.548;2022-12-07T10:05:03;6.57;;;5.43;;
48805;SDS011;34625;47.176;27.548;2022-12-07T10:07:35;9.20;;;5.25;;
48805;SDS011;34625;47.176;27.548;2022-12-07T10:10:02;9.20;;;5.80;;
48805;SDS011;34625;47.176;27.548;2022-12-07T10:12:42;8.38;;;6.15;;
48805;SDS011;34625;47.176;27.548;2022-12-07T10:15:46;6.70;;;4.90;;
48805;SDS011;34625;47.176;27.548;2022-12-07T10:18:36;7.13;;;6.10;;
48805;SDS011;34625;47.176;27.548;2022-12-07T10:24:04;8.27;;;4.90;;
48805;SDS011;34625;47.176;27.548;2022-12-07T10:26:41;7.78;;;5.38;;
48805;SDS011;34625;47.176;27.548;2022-12-07T10:31:43;7.43;;;5.72;;
48805;SDS011;34625;47.176;27.548;2022-12-07T10:39:44;7.45;;;5.28;;
48805;SDS011;34625;47.176;27.548;2022-12-07T10:42:23;9.02;;;6.30;;
48805;SDS011;34625;47.176;27.548;2022-12-07T10:50:26;8.95;;;5.93;;
48805;SDS011;34625;47.176;27.548;2022-12-07T10:56:19;8.43;;;6.43;;
48805;SDS011;34625;47.176;27.548;2022-12-07T11:01:57;7.97;;;5.65;;
48805;SDS011;34625;47.176;27.548;2022-12-07T11:12:47;6.85;;;5.53;;
48805;SDS011;34625;47.176;27.548;2022-12-07T11:23:02;5.63;;;4.45;;
48805;SDS011;34625;47.176;27.548;2022-12-07T11:25:31;6.93;;;4.93;;
48805;SDS011;34625;47.176;27.548;2022-12-07T11:30:56;8.88;;;6.30;;
48805;SDS011;34625;47.176;27.548;2022-12-07T11:36:41;10.13;;;5.38;;
48805;SDS011;34625;47.176;27.548;2022-12-07T11:39:26;9.23;;;5.18;;
48805;SDS011;34625;47.176;27.548;2022-12-07T11:42:01;7.82;;;5.45;;
48805;SDS011;34625;47.176;27.548;2022-12-07T11:52:43;6.63;;;5.45;;
48805;SDS011;34625;47.176;27.548;2022-12-07T11:55:18;6.45;;;5.32;;
48805;SDS011;34625;47.176;27.548;2022-12-07T11:57:51;7.55;;;5.55;;
48805;SDS011;34625;47.176;27.548;2022-12-07T12:00:39;9.15;;;5.47;;
48805;SDS011;34625;47.176;27.548;2022-12-07T12:03:15;6.53;;;5.28;;
48805;SDS011;34625;47.176;27.548;2022-12-07T12:05:55;7.45;;;5.38;;
48805;SDS011;34625;47.176;27.548;2022-12-07T12:08:32;8.38;;;6.10;;
48805;SDS011;34625;47.176;27.548;2022-12-07T12:21:55;9.07;;;5.78;;
48805;SDS011;34625;47.176;27.548;2022-12-07T12:24:26;8.65;;;6.68;;
48805;SDS011;34625;47.176;27.548;2022-12-07T12:27:17;7.43;;;6.15;;
48805;SDS011;34625;47.176;27.548;2022-12-07T12:29:54;52.53;;;21.20;;
48805;SDS011;34625;47.176;27.548;2022-12-07T12:32:24;9.60;;;7.10;;
48805;SDS011;34625;47.176;27.548;2022-12-07T12:35:20;9.00;;;7.03;;
48805;SDS011;34625;47.176;27.548;2022-12-07T12:40:54;9.60;;;6.50;;
48805;SDS011;34625;47.176;27.548;2022-12-07T12:43:42;10.45;;;6.32;;
48805;SDS011;34625;47.176;27.548;2022-12-07T12:51:46;10.05;;;6.10;;
48805;SDS011;34625;47.176;27.548;2022-12-07T12:56:57;8.95;;;6.13;;
48805;SDS011;34625;47.176;27.548;2022-12-07T13:05:14;7.60;;;5.88;;
48805;SDS011;34625;47.176;27.548;2022-12-07T13:18:23;8.80;;;6.25;;
48805;SDS011;34625;47.176;27.548;2022-12-07T13:31:54;10.85;;;6.88;;
48805;SDS011;34625;47.176;27.548;2022-12-07T13:37:04;10.00;;;7.13;;
48805;SDS011;34625;47.176;27.548;2022-12-07T13:39:34;12.77;;;7.70;;
48805;SDS011;34625;47.176;27.548;2022-12-07T13:42:14;11.50;;;6.88;;
48805;SDS011;34625;47.176;27.548;2022-12-07T13:44:56;12.25;;;7.13;;
48805;SDS011;34625;47.176;27.548;2022-12-07T13:47:38;14.70;;;7.10;;
48805;SDS011;34625;47.176;27.548;2022-12-07T13:50:26;12.98;;;7.22;;
48805;SDS011;34625;47.176;27.548;2022-12-07T13:52:54;26.80;;;12.48;;
48805;SDS011;34625;47.176;27.548;2022-12-07T13:55:21;28.77;;;14.35;;
48805;SDS011;34625;47.176;27.548;2022-12-07T13:57:48;45.13;;;17.83;;
48805;SDS011;34625;47.176;27.548;2022-12-07T14:00:17;16.90;;;9.93;;
48805;SDS011;34625;47.176;27.548;2022-12-07T14:02:55;16.15;;;9.25;;
48805;SDS011;34625;47.176;27.548;2022-12-07T14:05:26;17.63;;;13.18;;
48805;SDS011;34625;47.176;27.548;2022-12-07T14:07:53;18.08;;;10.52;;
48805;SDS011;34625;47.176;27.548;2022-12-07T14:15:30;16.15;;;10.82;;
48805;SDS011;34625;47.176;27.548;2022-12-07T14:17:59;18.25;;;10.80;;
48805;SDS011;34625;47.176;27.548;2022-12-07T14:22:58;17.75;;;11.45;;
48805;SDS011;34625;47.176;27.548;2022-12-07T14:25:25;20.08;;;12.43;;
48805;SDS011;34625;47.176;27.548;2022-12-07T14:27:58;13.57;;;8.65;;
48805;SDS011;34625;47.176;27.548;2022-12-07T14:30:30;14.57;;;9.20;;
48805;SDS011;34625;47.176;27.548;2022-12-07T14:32:58;26.17;;;13.65;;
48805;SDS011;34625;47.176;27.548;2022-12-07T14:35:26;41.53;;;19.38;;
48805;SDS011;34625;47.176;27.548;2022-12-07T14:37:53;31.13;;;15.88;;
48805;SDS011;34625;47.176;27.548;2022-12-07T14:40:26;30.92;;;14.63;;
48805;SDS011;34625;47.176;27.548;2022-12-07T14:42:55;35.55;;;14.98;;
48805;SDS011;34625;47.176;27.548;2022-12-07T14:45:30;26.90;;;13.07;;
48805;SDS011;34625;47.176;27.548;2022-12-07T14:47:56;27.33;;;12.57;;
48805;SDS011;34625;47.176;27.548;2022-12-07T14:50:22;19.20;;;11.00;;
48805;SDS011;34625;47.176;27.548;2022-12-07T14:52:49;17.92;;;10.25;;
48805;SDS011;34625;47.176;27.548;2022-12-07T14:55:26;18.55;;;11.88;;
48805;SDS011;34625;47.176;27.548;2022-12-07T14:57:53;18.15;;;11.48;;
48805;SDS011;34625;47.176;27.548;2022-12-07T15:00:20;15.82;;;10.27;;
48805;SDS011;34625;47.176;27.548;2022-12-07T15:02:48;13.93;;;10.00;;
48805;SDS011;34625;47.176;27.548;2022-12-07T15:05:15;18.42;;;10.55;;
48805;SDS011;34625;47.176;27.548;2022-12-07T15:07:42;17.48;;;11.82;;
48805;SDS011;34625;47.176;27.548;2022-12-07T15:12:57;19.42;;;12.95;;
48805;SDS011;34625;47.176;27.548;2022-12-07T15:15:45;15.77;;;9.10;;
48805;SDS011;34625;47.176;27.548;2022-12-07T15:18:11;21.33;;;11.10;;
48805;SDS011;34625;47.176;27.548;2022-12-07T15:20:37;15.95;;;10.60;;
48805;SDS011;34625;47.176;27.548;2022-12-07T15:23:04;21.27;;;12.68;;
48805;SDS011;34625;47.176;27.548;2022-12-07T15:25:30;18.08;;;11.00;;
48805;SDS011;34625;47.176;27.548;2022-12-07T15:27:56;17.40;;;10.52;;
48805;SDS011;34625;47.176;27.548;2022-12-07T15:30:22;18.42;;;11.05;;
48805;SDS011;34625;47.176;27.548;2022-12-07T15:32:51;18.73;;;9.90;;
48805;SDS011;34625;47.176;27.548;2022-12-07T15:35:18;16.02;;;10.63;;
48805;SDS011;34625;47.176;27.548;2022-12-07T15:37:44;16.73;;;10.38;;
48805;SDS011;34625;47.176;27.548;2022-12-07T15:40:12;18.55;;;11.18;;
48805;SDS011;34625;47.176;27.548;2022-12-07T15:42:39;19.35;;;10.70;;
48805;SDS011;34625;47.176;27.548;2022-12-07T15:45:06;13.30;;;8.52;;
48805;SDS011;34625;47.176;27.548;2022-12-07T15:47:41;18.90;;;11.45;;
48805;SDS011;34625;47.176;27.548;2022-12-07T15:50:15;15.55;;;10.60;;
48805;SDS011;34625;47.176;27.548;2022-12-07T15:52:42;18.45;;;9.98;;
48805;SDS011;34625;47.176;27.548;2022-12-07T15:55:09;17.38;;;9.77;;
48805;SDS011;34625;47.176;27.548;2022-12-07T15:57:36;24.75;;;15.63;;
48805;SDS011;34625;47.176;27.548;2022-12-07T16:00:04;50.35;;;28.05;;
48805;SDS011;34625;47.176;27.548;2022-12-07T16:02:31;46.40;;;24.42;;
48805;SDS011;34625;47.176;27.548;2022-12-07T16:04:57;43.58;;;25.02;;
48805;SDS011;34625;47.176;27.548;2022-12-07T16:07:23;42.17;;;23.15;;
48805;SDS011;34625;47.176;27.548;2022-12-07T16:09:49;33.90;;;20.80;;
48805;SDS011;34625;47.176;27.548;2022-12-07T16:12:16;29.70;;;18.00;;
48805;SDS011;34625;47.176;27.548;2022-12-07T16:14:42;31.95;;;24.70;;
48805;SDS011;34625;47.176;27.548;2022-12-07T16:17:08;35.47;;;24.17;;
48805;SDS011;34625;47.176;27.548;2022-12-07T16:19:35;29.83;;;18.80;;
48805;SDS011;34625;47.176;27.548;2022-12-07T16:22:02;30.55;;;19.20;;
48805;SDS011;34625;47.176;27.548;2022-12-07T16:24:29;37.08;;;20.90;;
48805;SDS011;34625;47.176;27.548;2022-12-07T16:26:55;30.95;;;21.17;;
48805;SDS011;34625;47.176;27.548;2022-12-07T16:29:22;27.45;;;17.85;;
48805;SDS011;34625;47.176;27.548;2022-12-07T16:31:48;27.70;;;19.10;;
48805;SDS011;34625;47.176;27.548;2022-12-07T16:34:16;29.90;;;17.63;;
48805;SDS011;34625;47.176;27.548;2022-12-07T16:36:43;31.70;;;17.55;;
48805;SDS011;34625;47.176;27.548;2022-12-07T16:39:09;26.73;;;18.10;;
48805;SDS011;34625;47.176;27.548;2022-12-07T16:41:35;24.92;;;16.77;;
48805;SDS011;34625;47.176;27.548;2022-12-07T16:44:02;28.00;;;18.42;;
48805;SDS011;34625;47.176;27.548;2022-12-07T16:46:33;24.08;;;16.38;;
48805;SDS011;34625;47.176;27.548;2022-12-07T16:49:00;26.15;;;16.77;;
48805;SDS011;34625;47.176;27.548;2022-12-07T16:51:27;32.90;;;17.83;;
48805;SDS011;34625;47.176;27.548;2022-12-07T16:53:53;23.55;;;16.63;;
48805;SDS011;34625;47.176;27.548;2022-12-07T16:56:20;28.48;;;17.35;;
48805;SDS011;34625;47.176;27.548;2022-12-07T16:58:46;28.05;;;17.48;;
48805;SDS011;34625;47.176;27.548;2022-12-07T17:01:14;25.85;;;17.67;;
48805;SDS011;34625;47.176;27.548;2022-12-07T17:03:44;31.08;;;18.83;;
48805;SDS011;34625;47.176;27.548;2022-12-07T17:06:12;37.75;;;21.17;;
48805;SDS011;34625;47.176;27.548;2022-12-07T17:08:40;37.25;;;22.25;;
48805;SDS011;34625;47.176;27.548;2022-12-07T17:11:11;35.08;;;21.25;;
48805;SDS011;34625;47.176;27.548;2022-12-07T17:13:39;40.27;;;22.30;;
48805;SDS011;34625;47.176;27.548;2022-12-07T17:16:24;35.50;;;22.42;;
48805;SDS011;34625;47.176;27.548;2022-12-07T17:18:50;32.70;;;21.80;;